sensor_id;sensor_type;location;lat;lon;timestamp;pressure;altitude;pressure_sealevel;temperature;humidity
69306;BME280;56427;51.580;4.656;2022-09-01T00:02:12;102090.94;;;16.15;77.11
69306;BME280;56427;51.580;4.656;2022-09-01T00:04:40;102087.16;;;16.08;77.74
69306;BME280;56427;51.580;4.656;2022-09-01T00:07:08;102092.53;;;16.07;77.88
69306;BME280;56427;51.580;4.656;2022-09-01T00:09:34;102085.50;;;15.97;78.63
69306;BME280;56427;51.580;4.656;2022-09-01T00:12:01;102087.13;;;15.98;79.38
69306;BME280;56427;51.580;4.656;2022-09-01T00:14:30;102086.72;;;15.93;79.64
69306;BME280;56427;51.580;4.656;2022-09-01T00:17:03;102073.31;;;15.87;79.63
69306;BME280;56427;51.580;4.656;2022-09-01T00:19:28;102079.78;;;15.82;80.37
69306;BME280;56427;51.580;4.656;2022-09-01T00:21:54;102076.00;;;15.75;80.82
69306;BME280;56427;51.580;4.656;2022-09-01T00:24:21;102078.50;;;15.77;81.35
69306;BME280;56427;51.580;4.656;2022-09-01T00:26:46;102072.75;;;15.83;81.10
69306;BME280;56427;51.580;4.656;2022-09-01T00:29:12;102070.41;;;15.80;81.11
69306;BME280;56427;51.580;4.656;2022-09-01T00:31:38;102072.69;;;15.73;81.85
69306;BME280;56427;51.580;4.656;2022-09-01T00:34:03;102070.84;;;15.64;82.56
69306;BME280;56427;51.580;4.656;2022-09-01T00:36:29;102067.47;;;15.73;82.48
69306;BME280;56427;51.580;4.656;2022-09-01T00:38:54;102071.25;;;15.59;83.10
69306;BME280;56427;51.580;4.656;2022-09-01T00:41:23;102074.56;;;15.61;83.29
69306;BME280;56427;51.580;4.656;2022-09-01T00:43:57;102075.69;;;15.69;83.36
69306;BME280;56427;51.580;4.656;2022-09-01T00:46:29;102071.56;;;15.66;83.84
69306;BME280;56427;51.580;4.656;2022-09-01T00:48:58;102067.53;;;15.62;84.07
69306;BME280;56427;51.580;4.656;2022-09-01T00:51:25;102069.09;;;15.64;84.20
69306;BME280;56427;51.580;4.656;2022-09-01T00:53:53;102065.91;;;15.61;84.54
69306;BME280;56427;51.580;4.656;2022-09-01T00:56:21;102070.72;;;15.65;84.67
69306;BME280;56427;51.580;4.656;2022-09-01T00:58:48;102063.28;;;15.61;84.80
69306;BME280;56427;51.580;4.656;2022-09-01T01:01:14;102065.19;;;15.59;85.14
69306;BME280;56427;51.580;4.656;2022-09-01T01:03:40;102063.28;;;15.61;85.24
69306;BME280;56427;51.580;4.656;2022-09-01T01:06:12;102068.38;;;15.62;85.24
69306;BME280;56427;51.580;4.656;2022-09-01T01:08:42;102060.66;;;15.61;85.73
69306;BME280;56427;51.580;4.656;2022-09-01T01:11:15;102063.59;;;15.68;85.92
69306;BME280;56427;51.580;4.656;2022-09-01T01:13:59;102062.75;;;15.67;86.10
69306;BME280;56427;51.580;4.656;2022-09-01T01:16:27;102048.34;;;15.52;86.46
69306;BME280;56427;51.580;4.656;2022-09-01T01:18:53;102051.97;;;15.60;86.45
69306;BME280;56427;51.580;4.656;2022-09-01T01:21:24;102048.91;;;15.55;86.63
69306;BME280;56427;51.580;4.656;2022-09-01T01:24:32;102060.78;;;15.59;86.90
69306;BME280;56427;51.580;4.656;2022-09-01T01:26:59;102049.13;;;15.42;87.66
69306;BME280;56427;51.580;4.656;2022-09-01T01:29:35;102051.69;;;15.33;88.29
69306;BME280;56427;51.580;4.656;2022-09-01T01:32:04;102054.16;;;15.55;87.60
69306;BME280;56427;51.580;4.656;2022-09-01T01:34:36;102050.03;;;15.53;87.41
69306;BME280;56427;51.580;4.656;2022-09-01T01:37:03;102056.06;;;15.53;87.67
69306;BME280;56427;51.580;4.656;2022-09-01T01:39:28;102061.38;;;15.42;88.66
69306;BME280;56427;51.580;4.656;2022-09-01T01:41:55;102056.59;;;15.26;89.26
69306;BME280;56427;51.580;4.656;2022-09-01T01:44:24;102059.28;;;15.36;88.87
69306;BME280;56427;51.580;4.656;2022-09-01T01:46:54;102056.47;;;15.27;89.32
69306;BME280;56427;51.580;4.656;2022-09-01T01:49:23;102053.47;;;15.53;88.37
69306;BME280;56427;51.580;4.656;2022-09-01T01:51:52;102059.59;;;15.42;88.82
69306;BME280;56427;51.580;4.656;2022-09-01T01:54:21;102054.84;;;15.26;89.57
69306;BME280;56427;51.580;4.656;2022-09-01T01:56:47;102054.59;;;15.30;89.83
69306;BME280;56427;51.580;4.656;2022-09-01T01:59:14;102056.63;;;15.05;90.63
69306;BME280;56427;51.580;4.656;2022-09-01T02:01:42;102057.31;;;15.07;90.99
69306;BME280;56427;51.580;4.656;2022-09-01T02:04:09;102058.09;;;15.19;90.03
69306;BME280;56427;51.580;4.656;2022-09-01T02:06:36;102063.75;;;15.24;90.48
69306;BME280;56427;51.580;4.656;2022-09-01T02:09:05;102066.38;;;15.24;90.39
69306;BME280;56427;51.580;4.656;2022-09-01T02:11:32;102062.19;;;15.12;91.26
69306;BME280;56427;51.580;4.656;2022-09-01T02:14:00;102061.91;;;14.94;91.93
69306;BME280;56427;51.580;4.656;2022-09-01T02:16:28;102062.34;;;14.99;91.83
69306;BME280;56427;51.580;4.656;2022-09-01T02:18:54;102055.75;;;14.83;92.87
69306;BME280;56427;51.580;4.656;2022-09-01T02:21:22;102059.59;;;14.79;92.91
69306;BME280;56427;51.580;4.656;2022-09-01T02:23:51;102054.56;;;14.87;92.61
69306;BME280;56427;51.580;4.656;2022-09-01T02:26:27;102054.31;;;14.90;92.79
69306;BME280;56427;51.580;4.656;2022-09-01T02:29:00;102056.84;;;14.81;93.04
69306;BME280;56427;51.580;4.656;2022-09-01T02:31:27;102055.56;;;14.75;94.04
69306;BME280;56427;51.580;4.656;2022-09-01T02:33:53;102048.00;;;14.72;94.12
69306;BME280;56427;51.580;4.656;2022-09-01T02:36:20;102050.09;;;14.99;92.83
69306;BME280;56427;51.580;4.656;2022-09-01T02:38:46;102055.38;;;14.56;94.70
69306;BME280;56427;51.580;4.656;2022-09-01T02:41:15;102041.72;;;14.63;94.06
69306;BME280;56427;51.580;4.656;2022-09-01T02:43:45;102038.41;;;14.61;94.81
69306;BME280;56427;51.580;4.656;2022-09-01T02:46:11;102044.44;;;14.50;95.74
69306;BME280;56427;51.580;4.656;2022-09-01T02:48:39;102042.47;;;14.43;95.69
69306;BME280;56427;51.580;4.656;2022-09-01T02:51:08;102046.94;;;14.52;95.78
69306;BME280;56427;51.580;4.656;2022-09-01T02:53:34;102040.81;;;14.42;96.21
69306;BME280;56427;51.580;4.656;2022-09-01T02:56:01;102039.56;;;14.25;96.80
69306;BME280;56427;51.580;4.656;2022-09-01T02:58:29;102044.00;;;14.45;96.26
69306;BME280;56427;51.580;4.656;2022-09-01T03:01:11;102040.56;;;14.45;96.33
69306;BME280;56427;51.580;4.656;2022-09-01T03:03:36;102040.41;;;14.58;96.32
69306;BME280;56427;51.580;4.656;2022-09-01T03:06:02;102043.97;;;14.57;95.58
69306;BME280;56427;51.580;4.656;2022-09-01T03:08:33;102040.47;;;14.35;96.45
69306;BME280;56427;51.580;4.656;2022-09-01T03:11:00;102033.75;;;14.21;97.52
69306;BME280;56427;51.580;4.656;2022-09-01T03:13:27;102026.50;;;14.25;98.20
69306;BME280;56427;51.580;4.656;2022-09-01T03:15:53;102030.06;;;14.12;98.30
69306;BME280;56427;51.580;4.656;2022-09-01T03:18:19;102027.97;;;14.06;98.78
69306;BME280;56427;51.580;4.656;2022-09-01T03:20:46;102029.72;;;14.06;98.99
69306;BME280;56427;51.580;4.656;2022-09-01T03:23:14;102030.47;;;13.96;99.46
69306;BME280;56427;51.580;4.656;2022-09-01T03:25:42;102035.28;;;14.12;98.51
69306;BME280;56427;51.580;4.656;2022-09-01T03:28:08;102026.88;;;14.20;98.89
69306;BME280;56427;51.580;4.656;2022-09-01T03:30:36;102032.13;;;13.86;100.00
69306;BME280;56427;51.580;4.656;2022-09-01T03:33:06;102031.97;;;14.10;99.37
69306;BME280;56427;51.580;4.656;2022-09-01T03:35:32;102028.09;;;14.05;99.64
69306;BME280;56427;51.580;4.656;2022-09-01T03:38:00;102020.97;;;14.07;98.88
69306;BME280;56427;51.580;4.656;2022-09-01T03:40:28;102025.50;;;13.82;100.00
69306;BME280;56427;51.580;4.656;2022-09-01T03:42:58;102027.50;;;13.90;100.00
69306;BME280;56427;51.580;4.656;2022-09-01T03:45:24;102028.22;;;13.80;100.00
69306;BME280;56427;51.580;4.656;2022-09-01T03:47:53;102023.22;;;14.00;100.00
69306;BME280;56427;51.580;4.656;2022-09-01T03:50:21;102020.22;;;14.16;99.27
69306;BME280;56427;51.580;4.656;2022-09-01T03:52:53;102017.31;;;13.98;99.94
69306;BME280;56427;51.580;4.656;2022-09-01T03:55:22;102013.50;;;13.91;100.00
69306;BME280;56427;51.580;4.656;2022-09-01T03:57:52;102010.88;;;14.02;100.00
69306;BME280;56427;51.580;4.656;2022-09-01T04:00:20;102017.31;;;13.98;99.79
69306;BME280;56427;51.580;4.656;2022-09-01T04:02:50;102023.13;;;13.79;100.00
69306;BME280;56427;51.580;4.656;2022-09-01T04:05:19;102017.66;;;13.82;100.00
69306;BME280;56427;51.580;4.656;2022-09-01T04:07:46;102022.19;;;13.69;100.00
69306;BME280;56427;51.580;4.656;2022-09-01T04:10:13;102019.94;;;13.75;100.00
69306;BME280;56427;51.580;4.656;2022-09-01T04:12:39;102018.84;;;13.78;100.00
69306;BME280;56427;51.580;4.656;2022-09-01T04:15:05;102018.38;;;13.61;100.00
69306;BME280;56427;51.580;4.656;2022-09-01T04:17:32;102014.47;;;13.67;100.00
69306;BME280;56427;51.580;4.656;2022-09-01T04:20:16;102023.94;;;13.91;100.00
69306;BME280;56427;51.580;4.656;2022-09-01T04:22:44;102018.03;;;13.66;100.00
69306;BME280;56427;51.580;4.656;2022-09-01T04:25:12;102014.69;;;13.53;100.00
69306;BME280;56427;51.580;4.656;2022-09-01T04:27:38;102016.16;;;13.57;100.00
69306;BME280;56427;51.580;4.656;2022-09-01T04:30:06;102023.72;;;13.49;100.00
69306;BME280;56427;51.580;4.656;2022-09-01T04:32:35;102023.22;;;13.43;100.00
69306;BME280;56427;51.580;4.656;2022-09-01T04:35:05;102024.91;;;13.56;100.00
69306;BME280;56427;51.580;4.656;2022-09-01T04:37:32;102029.66;;;13.62;100.00
69306;BME280;56427;51.580;4.656;2022-09-01T04:40:01;102022.31;;;13.67;100.00
69306;BME280;56427;51.580;4.656;2022-09-01T04:42:29;102023.13;;;13.56;100.00
69306;BME280;56427;51.580;4.656;2022-09-01T04:44:57;102019.78;;;13.43;100.00
69306;BME280;56427;51.580;4.656;2022-09-01T04:47:24;102025.38;;;13.50;100.00
69306;BME280;56427;51.580;4.656;2022-09-01T04:49:57;102023.59;;;13.39;100.00
69306;BME280;56427;51.580;4.656;2022-09-01T04:52:25;102027.22;;;13.25;100.00
69306;BME280;56427;51.580;4.656;2022-09-01T04:54:51;102024.91;;;13.44;100.00
69306;BME280;56427;51.580;4.656;2022-09-01T04:57:19;102027.84;;;13.40;100.00
69306;BME280;56427;51.580;4.656;2022-09-01T04:59:44;102022.97;;;13.35;100.00
69306;BME280;56427;51.580;4.656;2022-09-01T05:02:11;102022.50;;;13.41;100.00
69306;BME280;56427;51.580;4.656;2022-09-01T05:04:36;102022.22;;;13.22;100.00
69306;BME280;56427;51.580;4.656;2022-09-01T05:07:04;102018.50;;;13.37;100.00
69306;BME280;56427;51.580;4.656;2022-09-01T05:09:32;102019.75;;;13.32;100.00
69306;BME280;56427;51.580;4.656;2022-09-01T05:12:00;102018.94;;;13.31;100.00
69306;BME280;56427;51.580;4.656;2022-09-01T05:14:39;102024.13;;;13.31;100.00
69306;BME280;56427;51.580;4.656;2022-09-01T05:17:08;102017.06;;;13.33;100.00
69306;BME280;56427;51.580;4.656;2022-09-01T05:19:40;102015.41;;;13.43;100.00
69306;BME280;56427;51.580;4.656;2022-09-01T05:22:08;102018.88;;;13.55;100.00
69306;BME280;56427;51.580;4.656;2022-09-01T05:24:35;102020.03;;;13.51;100.00
69306;BME280;56427;51.580;4.656;2022-09-01T05:27:00;102015.41;;;13.55;100.00
69306;BME280;56427;51.580;4.656;2022-09-01T05:29:28;102020.63;;;13.66;100.00
69306;BME280;56427;51.580;4.656;2022-09-01T05:31:53;102018.50;;;13.71;99.93
69306;BME280;56427;51.580;4.656;2022-09-01T05:34:20;102019.31;;;13.83;99.30
69306;BME280;56427;51.580;4.656;2022-09-01T05:36:56;102015.88;;;13.83;98.91
69306;BME280;56427;51.580;4.656;2022-09-01T05:39:24;102018.47;;;14.81;94.84
69306;BME280;56427;51.580;4.656;2022-09-01T05:41:50;102016.47;;;15.68;89.24
69306;BME280;56427;51.580;4.656;2022-09-01T05:44:17;102018.13;;;16.09;86.37
69306;BME280;56427;51.580;4.656;2022-09-01T05:46:43;102021.34;;;16.42;84.71
69306;BME280;56427;51.580;4.656;2022-09-01T05:49:10;102021.75;;;16.28;84.32
69306;BME280;56427;51.580;4.656;2022-09-01T05:51:46;102026.59;;;16.62;81.79
69306;BME280;56427;51.580;4.656;2022-09-01T05:54:20;102022.91;;;17.31;78.74
69306;BME280;56427;51.580;4.656;2022-09-01T05:56:47;102028.66;;;17.44;77.76
69306;BME280;56427;51.580;4.656;2022-09-01T05:59:13;102027.91;;;17.62;76.69
69306;BME280;56427;51.580;4.656;2022-09-01T06:01:39;102029.34;;;18.12;75.40
69306;BME280;56427;51.580;4.656;2022-09-01T06:04:07;102031.16;;;18.47;72.07
69306;BME280;56427;51.580;4.656;2022-09-01T06:06:39;102028.84;;;19.33;69.00
69306;BME280;56427;51.580;4.656;2022-09-01T06:09:07;102035.22;;;19.56;66.48
69306;BME280;56427;51.580;4.656;2022-09-01T06:11:33;102028.84;;;18.62;68.94
69306;BME280;56427;51.580;4.656;2022-09-01T06:13:59;102033.97;;;18.00;72.00
69306;BME280;56427;51.580;4.656;2022-09-01T06:16:25;102031.88;;;18.03;71.92
69306;BME280;56427;51.580;4.656;2022-09-01T06:18:52;102031.63;;;17.97;71.60
69306;BME280;56427;51.580;4.656;2022-09-01T06:21:20;102038.09;;;18.02;71.62
69306;BME280;56427;51.580;4.656;2022-09-01T06:23:47;102033.94;;;18.28;71.25
69306;BME280;56427;51.580;4.656;2022-09-01T06:26:21;102028.25;;;18.50;70.85
69306;BME280;56427;51.580;4.656;2022-09-01T06:29:02;102028.63;;;18.37;69.56
69306;BME280;56427;51.580;4.656;2022-09-01T06:31:30;102032.72;;;18.76;69.03
69306;BME280;56427;51.580;4.656;2022-09-01T06:34:05;102024.22;;;18.82;68.87
69306;BME280;56427;51.580;4.656;2022-09-01T06:36:31;102029.63;;;18.99;67.36
69306;BME280;56427;51.580;4.656;2022-09-01T06:39:01;102031.91;;;18.93;67.73
69306;BME280;56427;51.580;4.656;2022-09-01T06:41:27;102037.59;;;18.17;70.00
69306;BME280;56427;51.580;4.656;2022-09-01T06:43:53;102040.31;;;18.61;68.70
69306;BME280;56427;51.580;4.656;2022-09-01T06:46:20;102036.41;;;19.36;66.08
69306;BME280;56427;51.580;4.656;2022-09-01T06:48:47;102043.03;;;19.40;66.00
69306;BME280;56427;51.580;4.656;2022-09-01T06:51:18;102049.81;;;19.77;65.45
69306;BME280;56427;51.580;4.656;2022-09-01T06:53:46;102039.94;;;20.54;61.54
69306;BME280;56427;51.580;4.656;2022-09-01T06:56:16;102052.00;;;19.90;63.17
69306;BME280;56427;51.580;4.656;2022-09-01T06:58:43;102041.91;;;19.77;63.36
69306;BME280;56427;51.580;4.656;2022-09-01T07:01:13;102041.19;;;19.66;63.79
69306;BME280;56427;51.580;4.656;2022-09-01T07:03:41;102048.41;;;19.64;63.39
69306;BME280;56427;51.580;4.656;2022-09-01T07:06:08;102049.59;;;20.21;62.31
69306;BME280;56427;51.580;4.656;2022-09-01T07:08:35;102043.44;;;20.63;60.41
69306;BME280;56427;51.580;4.656;2022-09-01T07:11:05;102047.38;;;20.67;60.05
69306;BME280;56427;51.580;4.656;2022-09-01T07:13:32;102043.06;;;20.41;60.59
69306;BME280;56427;51.580;4.656;2022-09-01T07:16:00;102048.19;;;19.84;62.08
69306;BME280;56427;51.580;4.656;2022-09-01T07:18:26;102046.75;;;19.98;62.21
69306;BME280;56427;51.580;4.656;2022-09-01T07:20:53;102039.59;;;20.49;60.77
69306;BME280;56427;51.580;4.656;2022-09-01T07:23:19;102047.72;;;20.97;59.81
69306;BME280;56427;51.580;4.656;2022-09-01T07:25:47;102041.75;;;20.87;59.47
69306;BME280;56427;51.580;4.656;2022-09-01T07:28:14;102041.75;;;20.78;59.04
69306;BME280;56427;51.580;4.656;2022-09-01T07:30:45;102040.28;;;20.84;59.81
69306;BME280;56427;51.580;4.656;2022-09-01T07:33:13;102041.25;;;20.50;59.86
69306;BME280;56427;51.580;4.656;2022-09-01T07:35:40;102043.09;;;20.66;59.17
69306;BME280;56427;51.580;4.656;2022-09-01T07:38:08;102047.03;;;20.87;59.23
69306;BME280;56427;51.580;4.656;2022-09-01T07:40:39;102043.22;;;21.06;57.79
69306;BME280;56427;51.580;4.656;2022-09-01T07:43:14;102044.13;;;21.38;58.33
69306;BME280;56427;51.580;4.656;2022-09-01T07:45:44;102045.09;;;20.72;59.28
69306;BME280;56427;51.580;4.656;2022-09-01T07:48:12;102045.06;;;20.97;58.43
69306;BME280;56427;51.580;4.656;2022-09-01T07:50:41;102056.59;;;20.96;58.22
69306;BME280;56427;51.580;4.656;2022-09-01T07:53:12;102049.13;;;21.24;58.39
69306;BME280;56427;51.580;4.656;2022-09-01T07:55:40;102051.72;;;21.41;57.78
69306;BME280;56427;51.580;4.656;2022-09-01T07:58:05;102057.22;;;21.79;56.78
69306;BME280;56427;51.580;4.656;2022-09-01T08:00:31;102054.72;;;21.85;56.20
69306;BME280;56427;51.580;4.656;2022-09-01T08:02:58;102049.09;;;21.49;56.46
69306;BME280;56427;51.580;4.656;2022-09-01T08:05:24;102047.53;;;21.71;56.07
69306;BME280;56427;51.580;4.656;2022-09-01T08:07:51;102056.22;;;22.11;55.42
69306;BME280;56427;51.580;4.656;2022-09-01T08:10:18;102047.22;;;21.58;56.22
69306;BME280;56427;51.580;4.656;2022-09-01T08:12:43;102048.06;;;21.58;56.26
69306;BME280;56427;51.580;4.656;2022-09-01T08:15:09;102055.72;;;21.37;57.25
69306;BME280;56427;51.580;4.656;2022-09-01T08:17:37;102048.78;;;21.83;56.28
69306;BME280;56427;51.580;4.656;2022-09-01T08:20:03;102040.16;;;21.90;56.26
69306;BME280;56427;51.580;4.656;2022-09-01T08:22:31;102051.03;;;21.95;55.98
69306;BME280;56427;51.580;4.656;2022-09-01T08:24:56;102045.88;;;22.56;55.06
69306;BME280;56427;51.580;4.656;2022-09-01T08:27:22;102057.50;;;22.15;55.22
69306;BME280;56427;51.580;4.656;2022-09-01T08:29:47;102056.41;;;22.41;55.24
69306;BME280;56427;51.580;4.656;2022-09-01T08:32:13;102049.50;;;23.16;53.75
69306;BME280;56427;51.580;4.656;2022-09-01T08:34:38;102046.38;;;23.57;51.63
69306;BME280;56427;51.580;4.656;2022-09-01T08:37:04;102049.38;;;23.69;52.18
69306;BME280;56427;51.580;4.656;2022-09-01T08:39:30;102050.31;;;23.17;52.11
69306;BME280;56427;51.580;4.656;2022-09-01T08:42:13;102042.06;;;22.58;53.40
69306;BME280;56427;51.580;4.656;2022-09-01T08:44:50;102050.69;;;22.90;53.11
69306;BME280;56427;51.580;4.656;2022-09-01T08:47:18;102044.75;;;22.88;53.19
69306;BME280;56427;51.580;4.656;2022-09-01T08:49:45;102043.53;;;22.76;52.87
69306;BME280;56427;51.580;4.656;2022-09-01T08:57:36;102043.84;;;23.19;52.37
69306;BME280;56427;51.580;4.656;2022-09-01T09:00:04;102041.28;;;23.26;52.00
69306;BME280;56427;51.580;4.656;2022-09-01T09:02:49;102039.72;;;23.17;52.46
69306;BME280;56427;51.580;4.656;2022-09-01T09:08:01;102042.09;;;23.11;52.21
69306;BME280;56427;51.580;4.656;2022-09-01T09:10:31;102045.63;;;23.33;51.78
69306;BME280;56427;51.580;4.656;2022-09-01T09:15:57;102041.25;;;24.29;49.97
69306;BME280;56427;51.580;4.656;2022-09-01T09:18:32;102031.75;;;24.56;50.02
69306;BME280;56427;51.580;4.656;2022-09-01T09:21:17;102035.50;;;24.03;49.72
69306;BME280;56427;51.580;4.656;2022-09-01T09:23:46;102032.41;;;24.00;49.08
69306;BME280;56427;51.580;4.656;2022-09-01T09:26:12;102033.88;;;24.24;48.89
69306;BME280;56427;51.580;4.656;2022-09-01T09:28:38;102036.19;;;24.34;48.70
69306;BME280;56427;51.580;4.656;2022-09-01T09:31:31;102032.66;;;24.05;49.13
69306;BME280;56427;51.580;4.656;2022-09-01T09:33:57;102029.03;;;23.91;50.00
69306;BME280;56427;51.580;4.656;2022-09-01T09:36:30;102023.31;;;23.73;49.70
69306;BME280;56427;51.580;4.656;2022-09-01T09:39:10;102022.50;;;23.72;49.73
69306;BME280;56427;51.580;4.656;2022-09-01T09:41:37;102023.47;;;23.86;50.22
69306;BME280;56427;51.580;4.656;2022-09-01T09:46:45;102024.03;;;24.18;48.29
69306;BME280;56427;51.580;4.656;2022-09-01T09:49:22;102017.38;;;24.07;48.54
69306;BME280;56427;51.580;4.656;2022-09-01T09:51:55;102032.44;;;24.21;48.10
69306;BME280;56427;51.580;4.656;2022-09-01T09:54:26;102022.63;;;24.00;48.21
69306;BME280;56427;51.580;4.656;2022-09-01T09:59:33;102015.47;;;24.01;48.55
69306;BME280;56427;51.580;4.656;2022-09-01T10:08:06;102009.09;;;24.38;47.78
69306;BME280;56427;51.580;4.656;2022-09-01T10:10:44;102008.47;;;24.86;45.98
69306;BME280;56427;51.580;4.656;2022-09-01T10:13:13;102009.72;;;24.40;46.75
69306;BME280;56427;51.580;4.656;2022-09-01T10:15:42;102005.78;;;25.14;45.01
69306;BME280;56427;51.580;4.656;2022-09-01T10:18:16;102001.09;;;25.16;43.62
69306;BME280;56427;51.580;4.656;2022-09-01T10:20:52;101997.84;;;24.86;44.62
69306;BME280;56427;51.580;4.656;2022-09-01T10:23:19;102000.38;;;25.36;42.89
69306;BME280;56427;51.580;4.656;2022-09-01T10:25:46;102005.19;;;25.67;41.76
69306;BME280;56427;51.580;4.656;2022-09-01T10:28:17;102002.03;;;25.37;42.39
69306;BME280;56427;51.580;4.656;2022-09-01T10:30:45;101995.03;;;24.94;42.36
69306;BME280;56427;51.580;4.656;2022-09-01T10:33:14;101997.56;;;24.74;42.55
69306;BME280;56427;51.580;4.656;2022-09-01T10:35:43;101989.16;;;24.21;42.75
69306;BME280;56427;51.580;4.656;2022-09-01T10:38:19;101987.78;;;24.53;42.37
69306;BME280;56427;51.580;4.656;2022-09-01T10:40:47;101988.28;;;24.64;42.46
69306;BME280;56427;51.580;4.656;2022-09-01T10:43:28;101995.69;;;25.03;41.13
69306;BME280;56427;51.580;4.656;2022-09-01T10:45:57;101995.66;;;24.96;41.80
69306;BME280;56427;51.580;4.656;2022-09-01T10:48:29;101985.38;;;25.15;41.01
69306;BME280;56427;51.580;4.656;2022-09-01T10:56:14;101991.66;;;25.07;41.05
69306;BME280;56427;51.580;4.656;2022-09-01T11:04:12;101984.16;;;25.24;39.49
69306;BME280;56427;51.580;4.656;2022-09-01T11:06:51;101980.25;;;25.13;40.72
69306;BME280;56427;51.580;4.656;2022-09-01T11:14:27;101979.16;;;25.01;39.19
69306;BME280;56427;51.580;4.656;2022-09-01T11:19:53;101963.28;;;24.51;40.80
69306;BME280;56427;51.580;4.656;2022-09-01T11:22:24;101971.78;;;24.68;40.98
69306;BME280;56427;51.580;4.656;2022-09-01T11:30:17;101966.31;;;25.53;39.47
69306;BME280;56427;51.580;4.656;2022-09-01T11:32:46;101963.06;;;25.58;38.62
69306;BME280;56427;51.580;4.656;2022-09-01T11:35:20;101957.34;;;25.12;38.85
69306;BME280;56427;51.580;4.656;2022-09-01T11:37:48;101957.38;;;25.19;40.02
69306;BME280;56427;51.580;4.656;2022-09-01T11:40:19;101959.34;;;25.45;39.10
69306;BME280;56427;51.580;4.656;2022-09-01T11:42:46;101951.47;;;25.24;38.54
69306;BME280;56427;51.580;4.656;2022-09-01T11:45:15;101964.56;;;25.25;38.79
69306;BME280;56427;51.580;4.656;2022-09-01T11:47:44;101952.25;;;25.17;37.90
69306;BME280;56427;51.580;4.656;2022-09-01T11:50:22;101960.81;;;25.13;39.28
69306;BME280;56427;51.580;4.656;2022-09-01T11:52:58;101967.75;;;25.07;38.78
69306;BME280;56427;51.580;4.656;2022-09-01T11:55:42;101958.34;;;24.70;39.43
69306;BME280;56427;51.580;4.656;2022-09-01T11:58:10;101955.38;;;24.86;39.16
69306;BME280;56427;51.580;4.656;2022-09-01T12:00:38;101949.09;;;24.94;39.94
69306;BME280;56427;51.580;4.656;2022-09-01T12:03:18;101955.00;;;24.96;39.87
69306;BME280;56427;51.580;4.656;2022-09-01T12:05:45;101947.19;;;24.81;39.33
69306;BME280;56427;51.580;4.656;2022-09-01T12:08:18;101960.09;;;25.32;39.50
69306;BME280;56427;51.580;4.656;2022-09-01T12:10:45;101942.81;;;25.57;38.87
69306;BME280;56427;51.580;4.656;2022-09-01T12:13:21;101942.63;;;25.58;38.85
69306;BME280;56427;51.580;4.656;2022-09-01T12:15:54;101941.75;;;25.44;39.17
69306;BME280;56427;51.580;4.656;2022-09-01T12:18:23;101941.94;;;25.36;38.58
69306;BME280;56427;51.580;4.656;2022-09-01T12:20:51;101939.84;;;26.13;38.29
69306;BME280;56427;51.580;4.656;2022-09-01T12:23:28;101929.19;;;26.00;37.13
69306;BME280;56427;51.580;4.656;2022-09-01T12:25:56;101933.22;;;25.69;37.83
69306;BME280;56427;51.580;4.656;2022-09-01T12:28:23;101933.72;;;26.13;37.94
69306;BME280;56427;51.580;4.656;2022-09-01T12:30:51;101932.19;;;25.63;37.99
69306;BME280;56427;51.580;4.656;2022-09-01T12:33:18;101933.03;;;25.84;37.76
69306;BME280;56427;51.580;4.656;2022-09-01T12:35:45;101927.59;;;26.05;37.78
69306;BME280;56427;51.580;4.656;2022-09-01T12:40:46;101929.91;;;25.40;37.52
69306;BME280;56427;51.580;4.656;2022-09-01T12:43:37;101931.47;;;26.03;36.94
69306;BME280;56427;51.580;4.656;2022-09-01T12:46:05;101931.81;;;25.80;35.90
69306;BME280;56427;51.580;4.656;2022-09-01T12:48:36;101930.03;;;26.07;36.02
69306;BME280;56427;51.580;4.656;2022-09-01T12:51:14;101932.31;;;25.28;36.29
69306;BME280;56427;51.580;4.656;2022-09-01T12:53:53;101930.06;;;25.32;36.51
69306;BME280;56427;51.580;4.656;2022-09-01T12:56:37;101928.53;;;25.71;35.23
69306;BME280;56427;51.580;4.656;2022-09-01T12:59:14;101932.22;;;25.83;35.07
69306;BME280;56427;51.580;4.656;2022-09-01T13:01:45;101918.69;;;25.51;36.16
69306;BME280;56427;51.580;4.656;2022-09-01T13:06:46;101916.47;;;25.82;34.72
69306;BME280;56427;51.580;4.656;2022-09-01T13:09:12;101916.31;;;26.10;34.87
69306;BME280;56427;51.580;4.656;2022-09-01T13:11:38;101922.44;;;26.44;34.40
69306;BME280;56427;51.580;4.656;2022-09-01T13:14:03;101907.03;;;26.59;33.16
69306;BME280;56427;51.580;4.656;2022-09-01T13:16:29;101913.84;;;26.29;33.83
69306;BME280;56427;51.580;4.656;2022-09-01T13:18:54;101910.78;;;26.12;34.06
69306;BME280;56427;51.580;4.656;2022-09-01T13:21:20;101910.16;;;26.30;33.31
69306;BME280;56427;51.580;4.656;2022-09-01T13:23:46;101909.53;;;25.74;33.43
69306;BME280;56427;51.580;4.656;2022-09-01T13:26:11;101907.31;;;26.11;34.41
69306;BME280;56427;51.580;4.656;2022-09-01T13:28:36;101900.53;;;25.95;33.07
69306;BME280;56427;51.580;4.656;2022-09-01T13:31:03;101895.63;;;26.32;32.74
69306;BME280;56427;51.580;4.656;2022-09-01T13:33:30;101906.84;;;26.48;32.95
69306;BME280;56427;51.580;4.656;2022-09-01T13:35:55;101902.00;;;26.04;33.56
69306;BME280;56427;51.580;4.656;2022-09-01T13:38:21;101897.09;;;26.08;33.01
69306;BME280;56427;51.580;4.656;2022-09-01T13:40:47;101899.69;;;26.41;32.84
69306;BME280;56427;51.580;4.656;2022-09-01T13:43:15;101883.97;;;26.13;32.32
69306;BME280;56427;51.580;4.656;2022-09-01T13:45:42;101889.91;;;26.02;33.37
69306;BME280;56427;51.580;4.656;2022-09-01T13:48:08;101886.78;;;26.52;32.28
69306;BME280;56427;51.580;4.656;2022-09-01T13:50:34;101884.19;;;26.12;32.69